Time;durP1;ratioP1;P1;durP2;ratioP2;P2;SDS_P1;SDS_P2;PMS_P1;PMS_P2;Temp;Humidity;BMP_temperature;BMP_pressure;BME280_temperature;BME280_humidity;BME280_pressure;Samples;Min_cycle;Max_cycle;Signal;HPM_P1;HPM_P2
2022/12/26 00:01:46;;;;;;;37.10;15.90;;;;;;;6.42;76.65;99843.36;24467;1333;3049228;-66
2022/12/26 00:04:16;;;;;;;40.90;17.10;;;;;;;6.31;77.16;99846.03;24461;1324;3026025;-68
2022/12/26 00:06:47;;;;;;;47.70;17.70;;;;;;;6.13;77.50;99848.26;24490;1341;3028057;-66
2022/12/26 00:09:16;;;;;;;37.20;16.10;;;;;;;5.94;78.31;99849.27;24481;1327;3026644;-65
2022/12/26 00:11:51;;;;;;;41.10;17.60;;;;;;;5.81;78.94;99853.87;24576;1331;3051284;-66
2022/12/26 00:14:20;;;;;;;41.00;17.20;;;;;;;5.83;79.67;99855.00;24505;1324;3026709;-66
2022/12/26 00:16:49;;;;;;;36.70;15.00;;;;;;;5.86;79.23;99856.66;24428;1325;3057922;-66
2022/12/26 00:19:18;;;;;;;28.10;11.20;;;;;;;5.88;78.86;99853.45;24520;1326;3025835;-66
2022/12/26 00:21:47;;;;;;;23.80;10.50;;;;;;;6.36;77.40;99857.52;24551;1333;3048637;-64
2022/12/26 00:24:16;;;;;;;34.70;13.90;;;;;;;6.86;75.69;99854.23;24500;1327;3025091;-65
2022/12/26 00:26:45;;;;;;;35.30;14.70;;;;;;;6.89;75.20;99856.19;24441;1333;3068848;-66
2022/12/26 00:29:14;;;;;;;29.60;13.60;;;;;;;6.84;75.63;99861.27;24563;1326;3028590;-66
2022/12/26 00:31:45;;;;;;;37.00;15.70;;;;;;;6.78;75.82;99867.58;24516;1326;3049290;-67
2022/12/26 00:34:14;;;;;;;36.20;14.90;;;;;;;6.46;75.93;99872.45;24484;1327;3026412;-65
2022/12/26 00:36:43;;;;;;;34.10;14.90;;;;;;;6.30;76.60;99870.09;24451;1326;3028717;-68
2022/12/26 00:39:12;;;;;;;33.40;15.20;;;;;;;6.15;76.91;99876.90;24517;1326;3049401;-65
2022/12/26 00:41:41;;;;;;;35.50;15.20;;;;;;;5.96;77.58;99880.66;24456;1333;3028572;-67
2022/12/26 00:44:10;;;;;;;28.60;13.40;;;;;;;5.89;77.85;99884.36;24564;1332;3052985;-67
2022/12/26 00:46:40;;;;;;;30.90;15.00;;;;;;;5.87;77.84;99883.21;24552;1333;3028393;-67
2022/12/26 00:49:09;;;;;;;26.90;13.00;;;;;;;5.79;77.81;99888.18;24524;1333;3028067;-67
2022/12/26 00:51:38;;;;;;;28.70;13.30;;;;;;;5.77;78.03;99887.55;24457;1326;3054929;-65
2022/12/26 00:54:07;;;;;;;25.20;12.10;;;;;;;5.67;78.05;99888.41;24522;1332;3028068;-67
2022/12/26 00:56:36;;;;;;;20.90;8.40;;;;;;;5.53;78.90;99888.88;24452;1318;3050662;-65
2022/12/26 00:59:05;;;;;;;18.40;8.20;;;;;;;6.06;77.85;99883.61;24523;1322;3027399;-66
2022/12/26 01:01:34;;;;;;;24.70;11.00;;;;;;;6.59;75.83;99883.29;24467;1333;3053246;-63
2022/12/26 01:04:03;;;;;;;29.60;12.50;;;;;;;6.83;75.48;99883.79;24484;1333;3028903;-69
2022/12/26 01:06:33;;;;;;;26.20;12.20;;;;;;;6.68;74.74;99883.64;24520;1337;3053213;-65
2022/12/26 01:09:02;;;;;;;22.90;11.60;;;;;;;6.48;75.23;99885.96;24466;1330;3028699;-67
2022/12/26 01:11:40;;;;;;;25.10;12.40;;;;;;;6.31;75.90;99891.79;24482;1333;3056050;-66
2022/12/26 01:14:14;;;;;;;30.30;14.50;;;;;;;6.10;76.68;99894.11;24430;1333;3053273;-65
2022/12/26 01:16:44;;;;;;;31.80;13.80;;;;;;;6.00;77.19;99896.00;24537;1333;3053536;-64
2022/12/26 01:19:13;;;;;;;33.20;15.50;;;;;;;5.72;78.07;99891.38;24513;1326;3026338;-64
2022/12/26 01:21:42;;;;;;;28.60;13.50;;;;;;;5.55;78.86;99888.45;24523;1326;3028122;-64
2022/12/26 01:24:13;;;;;;;30.10;14.30;;;;;;;5.55;79.09;99885.18;24461;1334;3053089;-64
2022/12/26 01:26:42;;;;;;;43.50;16.90;;;;;;;5.44;79.09;99882.55;24526;1319;3026420;-65
2022/12/26 01:29:11;;;;;;;26.70;11.30;;;;;;;5.07;80.60;99884.60;24489;1326;3051138;-65
2022/12/26 01:31:42;;;;;;;28.10;11.30;;;;;;;5.75;80.22;99884.67;24464;1333;3026616;-65
2022/12/26 01:34:10;;;;;;;25.10;12.80;;;;;;;6.39;77.81;99880.19;24498;1322;3025898;-63
2022/12/26 01:36:39;;;;;;;35.50;16.70;;;;;;;6.50;76.85;99878.20;24451;1325;3051050;-64
2022/12/26 01:39:09;;;;;;;34.40;16.30;;;;;;;6.46;77.00;99879.25;24519;1333;3025872;-64
2022/12/26 01:41:39;;;;;;;40.70;18.20;;;;;;;6.19;76.83;99881.41;24487;1326;3026503;-66
2022/12/26 01:44:45;;;;;;;40.40;18.00;;;;;;;5.90;77.49;99884.86;24456;1332;3052320;-65
2022/12/26 01:47:15;;;;;;;43.80;18.90;;;;;;;5.59;78.64;99888.69;24531;1333;3052873;-66
2022/12/26 01:49:45;;;;;;;34.50;17.30;;;;;;;5.43;79.41;99891.63;24446;1326;3028725;-66
2022/12/26 01:52:37;;;;;;;41.00;16.70;;;;;;;5.37;79.98;99888.38;24467;1326;3051608;-64
2022/12/26 01:55:07;;;;;;;39.60;17.60;;;;;;;5.27;80.37;99895.11;24533;1333;3052115;-71
2022/12/26 01:57:41;;;;;;;33.90;16.10;;;;;;;5.25;80.78;99899.17;24501;1326;3026689;-69
2022/12/26 02:00:11;;;;;;;26.90;11.30;;;;;;;5.14;80.87;99895.88;24508;1333;3052643;-66
2022/12/26 02:05:34;;;;;;;33.00;14.80;;;;;;;6.31;77.88;99898.08;24493;1333;3069341;-67
2022/12/26 02:08:10;;;;;;;32.80;15.00;;;;;;;6.42;77.33;99889.31;24510;1333;3025867;-65
2022/12/26 02:10:49;;;;;;;35.80;16.70;;;;;;;6.31;76.70;99891.43;24467;1326;3056315;-68
2022/12/26 02:13:18;;;;;;;40.00;16.00;;;;;;;6.10;76.87;99888.00;24529;1317;3053168;-66
2022/12/26 02:15:47;;;;;;;36.70;16.40;;;;;;;5.95;77.18;99893.20;24481;1334;3025873;-65
2022/12/26 02:18:16;;;;;;;33.30;15.40;;;;;;;5.82;77.37;99892.92;24494;1339;3056205;-65
2022/12/26 02:20:57;;;;;;;42.60;16.70;;;;;;;5.70;77.96;99896.30;24492;1333;3028748;-65
2022/12/26 02:23:41;;;;;;;35.40;15.30;;;;;;;5.62;78.10;99897.25;24490;1335;3050484;-65
2022/12/26 02:26:38;;;;;;;34.70;14.40;;;;;;;5.49;78.12;99895.45;24505;1333;3056844;-65
2022/12/26 02:29:25;;;;;;;36.40;14.60;;;;;;;5.48;77.76;99894.41;24514;1316;3051672;-68
2022/12/26 02:32:03;;;;;;;37.50;14.90;;;;;;;5.36;77.91;99893.26;24562;1333;3053122;-68
2022/12/26 02:34:44;;;;;;;36.50;14.80;;;;;;;5.19;78.71;99887.54;24507;1332;3051230;-65
2022/12/26 02:37:20;;;;;;;28.60;10.50;;;;;;;5.10;79.36;99887.63;24465;1333;3052002;-67
2022/12/26 02:40:14;;;;;;;24.30;10.40;;;;;;;5.75;78.00;99889.54;24525;1330;3049322;-69
2022/12/26 02:42:46;;;;;;;;;;;;;;;6.31;75.79;99888.49;24457;1332;3068578;-70
2022/12/26 02:48:34;;;;;;;33.60;15.00;;;;;;;6.19;75.06;99896.03;24495;1333;3057377;-65
2022/12/26 03:14:22;;;;;;;32.00;13.90;;;;;;;5.12;79.49;99901.12;24505;1332;3052449;-69
2022/12/26 03:19:56;;;;;;;24.00;9.80;;;;;;;5.88;78.11;99911.36;24474;1326;3051467;-67
2022/12/26 03:22:32;;;;;;;29.20;12.50;;;;;;;6.46;75.85;99910.55;24484;1333;3052530;-66
2022/12/26 03:27:52;;;;;;;31.50;12.90;;;;;;;6.41;74.98;99918.41;24475;1333;3070065;-69
2022/12/26 03:34:16;;;;;;;34.50;14.10;;;;;;;6.11;75.70;99923.12;24470;1339;3056917;-66
2022/12/26 03:35:59;;;;;;;37.70;16.40;;;;;;;5.94;76.24;99921.05;24545;1333;3054009;-66
2022/12/26 03:38:56;;;;;;;37.20;15.70;;;;;;;5.82;76.67;99925.98;24469;1318;3028071;-67
2022/12/26 04:19:26;;;;;;;31.20;13.20;;;;;;;5.64;77.66;99946.05;24460;1333;3049918;-64
2022/12/26 04:45:05;;;;;;;36.40;15.30;;;;;;;6.09;75.69;99953.27;24489;1326;3069364;-67
2022/12/26 04:47:35;;;;;;;33.20;14.10;;;;;;;5.84;76.39;99957.02;24515;1326;3025971;-65
2022/12/26 04:50:12;;;;;;;35.50;14.50;;;;;;;5.68;76.72;99962.25;24563;1333;3027985;-64
2022/12/26 04:52:59;;;;;;;31.80;14.10;;;;;;;5.54;77.02;99960.26;24486;1342;3052368;-67
2022/12/26 04:55:30;;;;;;;35.10;15.40;;;;;;;5.44;77.73;99958.14;24490;1327;3053975;-66
2022/12/26 04:58:00;;;;;;;33.80;14.50;;;;;;;5.36;78.06;99958.77;24490;1333;3025996;-66
2022/12/26 05:00:29;;;;;;;38.20;16.10;;;;;;;5.29;78.50;99965.04;24488;1341;3026708;-67
2022/12/26 05:11:26;;;;;;;25.20;9.70;;;;;;;6.01;77.07;99977.02;24488;1325;3049947;-64
2022/12/26 05:13:55;;;;;;;29.40;13.20;;;;;;;6.49;74.82;99975.73;24493;1326;3025825;-69
2022/12/26 05:30:27;;;;;;;39.10;15.50;;;;;;;5.74;76.69;99988.47;24511;1327;3052533;-69
2022/12/26 05:35:44;;;;;;;37.40;14.30;;;;;;;5.56;77.57;99989.05;24532;1326;3052017;-68
2022/12/26 05:38:13;;;;;;;38.60;15.40;;;;;;;5.43;78.02;99994.13;24459;1343;3025979;-67
2022/12/26 05:40:44;;;;;;;33.60;14.70;;;;;;;5.36;78.53;99995.91;24556;1333;3054190;-68
2022/12/26 05:43:13;;;;;;;35.30;15.70;;;;;;;5.31;78.76;99999.54;24491;1326;3028443;-67
2022/12/26 05:45:42;;;;;;;26.40;10.40;;;;;;;5.27;79.22;99998.63;24497;1333;3051352;-65
2022/12/26 05:48:12;;;;;;;24.50;9.30;;;;;;;5.76;78.53;99996.93;24499;1333;3029094;-69
2022/12/26 05:50:41;;;;;;;32.60;13.00;;;;;;;6.36;75.90;100000.88;24506;1333;3056468;-65
2022/12/26 05:53:09;;;;;;;35.70;15.40;;;;;;;6.50;75.17;100009.80;24512;1332;3028206;-67
2022/12/26 05:55:40;;;;;;;31.80;13.40;;;;;;;6.38;75.32;100016.29;24495;1340;3049458;-64
2022/12/26 05:58:09;;;;;;;28.40;14.00;;;;;;;6.04;75.75;100019.32;24543;1333;3026064;-68
2022/12/26 06:00:38;;;;;;;37.20;16.70;;;;;;;5.84;76.89;100021.36;24528;1333;3068034;-67
2022/12/26 06:03:07;;;;;;;38.50;15.90;;;;;;;5.62;78.01;100027.78;24530;1334;3026219;-68
2022/12/26 06:05:36;;;;;;;39.30;16.40;;;;;;;5.50;78.65;100030.42;24539;1335;3025658;-66
2022/12/26 06:08:05;;;;;;;39.60;16.50;;;;;;;5.45;79.21;100037.00;24466;1342;3068316;-66
2022/12/26 06:10:36;;;;;;;35.60;15.00;;;;;;;5.37;79.27;100039.84;24557;1334;3028206;-67
2022/12/26 06:13:05;;;;;;;41.90;17.00;;;;;;;5.39;79.36;100046.04;24520;1333;3027863;-66
2022/12/26 06:15:34;;;;;;;42.50;16.40;;;;;;;5.33;79.91;100052.82;24572;1336;3068023;-65
2022/12/26 06:18:03;;;;;;;35.70;12.80;;;;;;;5.20;80.39;100049.88;24521;1333;3026500;-67
2022/12/26 06:20:32;;;;;;;23.50;10.20;;;;;;;5.70;79.75;100047.70;24542;1336;3049234;-65
2022/12/26 06:23:01;;;;;;;25.60;12.40;;;;;;;6.20;77.38;100052.23;24541;1333;3026525;-69
2022/12/26 06:25:31;;;;;;;34.10;15.50;;;;;;;6.29;76.67;100053.67;24579;1340;3052472;-68
2022/12/26 06:28:01;;;;;;;36.80;16.00;;;;;;;6.19;77.13;100053.99;24553;1327;3029119;-67
2022/12/26 06:30:30;;;;;;;37.60;14.70;;;;;;;5.97;77.53;100052.60;24514;1324;3027787;-65
2022/12/26 06:32:59;;;;;;;33.70;14.70;;;;;;;5.79;78.29;100063.22;24580;1333;3051417;-66
2022/12/26 06:35:28;;;;;;;41.20;16.50;;;;;;;5.71;79.03;100061.91;24516;1326;3028364;-71
2022/12/26 06:37:57;;;;;;;36.80;15.60;;;;;;;5.58;79.38;100063.70;24480;1332;3050640;-68
2022/12/26 06:40:27;;;;;;;49.70;19.30;;;;;;;5.45;79.75;100065.84;24514;1326;3027591;-63
2022/12/26 06:42:56;;;;;;;42.80;17.50;;;;;;;5.42;79.94;100066.11;24435;1337;3026718;-69
2022/12/26 06:45:25;;;;;;;35.70;15.90;;;;;;;5.29;80.57;100070.47;24538;1326;3024809;-69
2022/12/26 06:47:54;;;;;;;25.30;9.10;;;;;;;5.14;81.17;100074.03;24549;1339;3052591;-67
2022/12/26 06:50:23;;;;;;;22.10;10.30;;;;;;;5.56;80.44;100061.83;24521;1334;3026068;-68
2022/12/26 06:52:52;;;;;;;27.90;11.80;;;;;;;6.15;78.69;100063.17;24603;1333;3026293;-66
2022/12/26 06:55:21;;;;;;;28.40;13.60;;;;;;;6.30;77.64;100062.14;24456;1339;3051542;-68
2022/12/26 06:57:51;;;;;;;35.10;14.80;;;;;;;6.05;78.20;100061.60;24636;1324;3026024;-63
2022/12/26 07:00:23;;;;;;;29.90;13.60;;;;;;;6.10;78.37;100062.09;24542;1328;3051602;-66
2022/12/26 07:02:52;;;;;;;24.10;12.20;;;;;;;5.89;78.30;100067.96;24517;1333;3029361;-68
2022/12/26 07:05:23;;;;;;;35.90;15.60;;;;;;;5.62;78.95;100065.16;24529;1333;3026593;-67
2022/12/26 07:07:53;;;;;;;33.00;14.70;;;;;;;5.56;79.96;100064.13;24538;1333;3051064;-64
2022/12/26 07:10:23;;;;;;;33.50;14.00;;;;;;;5.36;80.31;100065.06;24528;1333;3025822;-64
2022/12/26 07:12:52;;;;;;;40.10;16.10;;;;;;;5.36;80.86;100069.74;24486;1326;3025781;-70
2022/12/26 07:15:21;;;;;;;37.20;14.40;;;;;;;5.35;81.23;100065.10;24560;1339;3050829;-65
2022/12/26 07:17:51;;;;;;;24.80;9.90;;;;;;;5.36;81.20;100073.05;24626;1325;3026357;-66
2022/12/26 07:20:20;;;;;;;26.60;11.60;;;;;;;5.87;80.13;100069.59;24604;1340;3052617;-66
2022/12/26 07:22:49;;;;;;;28.60;12.10;;;;;;;6.36;77.80;100072.73;24526;1331;3025841;-67
2022/12/26 07:25:18;;;;;;;32.90;12.90;;;;;;;6.56;76.92;100073.63;24563;1331;3052096;-68
2022/12/26 07:27:47;;;;;;;27.10;12.90;;;;;;;6.38;76.84;100076.33;24502;1332;3028222;-68
2022/12/26 07:30:16;;;;;;;27.70;12.10;;;;;;;6.22;77.85;100072.88;24478;1332;3056018;-65
2022/12/26 07:32:45;;;;;;;38.50;16.30;;;;;;;6.21;77.94;100073.77;24474;1319;3026379;-68
2022/12/26 07:35:14;;;;;;;31.10;13.90;;;;;;;5.96;78.26;100074.73;24533;1326;3049717;-66
2022/12/26 07:37:43;;;;;;;30.40;14.20;;;;;;;5.71;79.14;100071.33;24458;1318;3028666;-68
2022/12/26 07:40:12;;;;;;;36.50;15.00;;;;;;;5.45;80.15;100074.34;24472;1332;3068748;-68
2022/12/26 07:42:41;;;;;;;37.70;15.50;;;;;;;5.51;80.77;100074.51;24488;1326;3025812;-65
2022/12/26 07:45:11;;;;;;;35.80;13.90;;;;;;;5.49;80.85;100075.11;24426;1327;3048391;-64
2022/12/26 07:47:40;;;;;;;28.60;11.20;;;;;;;5.49;81.07;100077.36;24548;1332;3026529;-67
2022/12/26 07:50:10;;;;;;;23.50;9.90;;;;;;;6.08;79.89;100077.30;24453;1333;3052122;-68
2022/12/26 07:52:38;;;;;;;25.10;12.50;;;;;;;6.65;77.39;100082.20;24551;1333;3027533;-67
2022/12/26 07:55:08;;;;;;;19.40;9.80;;;;;;;6.66;76.33;100088.08;24452;1326;3050874;-66
2022/12/26 07:57:37;;;;;;;20.90;9.00;;;;;;;6.57;76.49;100088.06;24566;1331;3026100;-67
2022/12/26 08:00:07;;;;;;;15.00;7.70;;;;;;;6.20;76.46;100086.81;24474;1326;3025919;-65
2022/12/26 08:02:41;;;;;;;9.80;5.20;;;;;;;5.82;77.36;100087.47;24463;1332;3051191;-66
2022/12/26 08:05:10;;;;;;;8.80;5.00;;;;;;;5.19;78.94;100091.94;24522;1333;3028853;-68
2022/12/26 08:07:38;;;;;;;7.80;4.10;;;;;;;4.94;79.82;100089.50;24483;1325;3050857;-66
2022/12/26 08:10:08;;;;;;;7.20;3.70;;;;;;;4.48;81.18;100094.71;24465;1327;3026569;-67
2022/12/26 08:12:38;;;;;;;6.50;3.50;;;;;;;4.08;83.22;100100.38;24520;1333;3051943;-67
2022/12/26 08:15:09;;;;;;;4.50;3.00;;;;;;;3.92;83.82;100101.09;24436;1325;3025714;-67
2022/12/26 08:17:38;;;;;;;4.60;2.50;;;;;;;3.72;84.68;100102.42;24463;1333;3056476;-64
2022/12/26 08:20:07;;;;;;;3.30;2.30;;;;;;;3.74;85.29;100109.48;24541;1333;3026004;-64
2022/12/26 08:22:36;;;;;;;4.50;2.50;;;;;;;4.01;84.98;100108.70;24554;1331;3049907;-66
2022/12/26 08:25:07;;;;;;;4.60;3.10;;;;;;;4.39;83.28;100109.86;24603;1333;3027023;-67
2022/12/26 08:27:37;;;;;;;6.80;3.00;;;;;;;4.55;82.15;100108.41;24524;1326;3026123;-68
2022/12/26 08:30:07;;;;;;;6.20;3.60;;;;;;;4.47;81.78;100109.66;24575;1332;3027202;-66
2022/12/26 08:32:38;;;;;;;8.40;3.40;;;;;;;4.18;82.58;100105.01;24514;1327;3026283;-69
2022/12/26 08:35:08;;;;;;;4.90;3.10;;;;;;;3.89;84.01;100102.05;24634;1333;3025467;-72
2022/12/26 08:37:38;;;;;;;5.50;3.00;;;;;;;4.11;83.95;100099.63;24802;1329;3026640;-71
2022/12/26 08:40:08;;;;;;;7.30;3.40;;;;;;;3.70;84.06;100101.23;24476;1331;3025860;-70
2022/12/26 08:42:37;;;;;;;7.00;3.20;;;;;;;3.37;85.68;100100.06;24474;1331;3052255;-68
2022/12/26 08:45:07;;;;;;;3.10;2.10;;;;;;;3.31;86.54;100090.66;24507;1323;3028745;-67
2022/12/26 08:47:36;;;;;;;3.70;1.90;;;;;;;3.83;86.14;100085.70;24522;1326;3025808;-66
2022/12/26 08:50:06;;;;;;;4.50;2.80;;;;;;;4.52;83.52;100084.73;24511;1323;3026232;-67
2022/12/26 08:52:36;;;;;;;5.20;2.90;;;;;;;4.57;81.86;100087.90;24529;1334;3049793;-67
2022/12/26 08:55:05;;;;;;;5.20;2.80;;;;;;;4.50;81.91;100087.73;24556;1325;3028320;-68
2022/12/26 08:57:34;;;;;;;5.80;3.70;;;;;;;4.38;81.80;100089.25;24523;1331;3051540;-68
2022/12/26 09:00:04;;;;;;;5.90;3.50;;;;;;;4.16;82.62;100087.71;24565;1332;3028576;-67
2022/12/26 09:02:34;;;;;;;5.40;3.20;;;;;;;4.06;83.38;100094.54;24528;1329;3051363;-71
2022/12/26 09:05:05;;;;;;;7.50;3.80;;;;;;;3.98;83.43;100097.70;24496;1334;3026442;-69
2022/12/26 09:07:34;;;;;;;8.80;3.90;;;;;;;3.63;84.59;100097.94;24536;1326;3026650;-72
2022/12/26 09:10:05;;;;;;;5.20;2.90;;;;;;;3.42;85.96;100099.77;24564;1323;3027959;-67
2022/12/26 09:12:34;;;;;;;3.50;2.10;;;;;;;3.99;85.37;100095.22;24566;1332;3052007;-71
2022/12/26 09:15:04;;;;;;;5.90;3.20;;;;;;;4.73;82.94;100096.85;24502;1333;3028600;-71
2022/12/26 09:17:33;;;;;;;5.90;3.20;;;;;;;5.11;81.90;100094.61;24478;1333;3028334;-69
2022/12/26 09:20:03;;;;;;;6.60;3.40;;;;;;;4.83;80.63;100097.10;24606;1328;3026138;-71
2022/12/26 09:22:50;;;;;;;6.30;3.30;;;;;;;4.22;81.89;100094.14;24589;1331;3048962;-67
2022/12/26 09:25:22;;;;;;;6.60;3.30;;;;;;;3.95;83.27;100096.17;24548;1326;3069958;-68
2022/12/26 09:27:52;;;;;;;7.80;4.00;;;;;;;3.73;84.09;100095.98;24521;1334;3026690;-68
2022/12/26 09:30:21;;;;;;;7.90;4.10;;;;;;;3.58;85.21;100098.75;24610;1333;3026729;-69
2022/12/26 09:32:52;;;;;;;8.60;4.50;;;;;;;3.50;85.53;100104.81;24542;1332;3028522;-71
2022/12/26 09:35:22;;;;;;;4.40;2.70;;;;;;;3.45;85.95;100106.64;24582;1331;3026097;-72
2022/12/26 09:37:51;;;;;;;4.60;2.30;;;;;;;3.96;85.35;100102.21;24592;1326;3025960;-73
2022/12/26 09:40:23;;;;;;;6.60;3.10;;;;;;;4.62;82.56;100100.08;24565;1324;3026014;-76
2022/12/26 09:43:30;;;;;;;6.60;3.20;;;;;;;4.79;81.08;100097.20;24585;1331;3052979;-67
2022/12/26 09:46:11;;;;;;;4.40;2.80;;;;;;;4.68;80.72;100095.60;24494;1333;3053284;-68
2022/12/26 09:48:49;;;;;;;5.30;3.10;;;;;;;4.42;81.53;100098.02;24501;1329;3053149;-65
2022/12/26 09:51:18;;;;;;;4.80;2.80;;;;;;;4.13;81.87;100101.98;24552;1337;3049347;-68
2022/12/26 09:53:47;;;;;;;5.20;2.80;;;;;;;3.78;83.57;100098.47;24505;1328;3026193;-70
2022/12/26 09:56:17;;;;;;;5.90;3.50;;;;;;;3.67;84.06;100095.25;24517;1341;3052969;-66
2022/12/26 09:58:53;;;;;;;6.80;3.30;;;;;;;3.63;84.29;100092.74;23827;1333;4552083;-65
2022/12/26 10:01:28;;;;;;;4.90;2.50;;;;;;;3.50;84.44;100095.96;24594;1341;3067209;-68
2022/12/26 10:03:57;;;;;;;3.50;2.00;;;;;;;3.81;84.62;100089.57;24509;1331;3050018;-68
2022/12/26 10:06:35;;;;;;;5.50;2.70;;;;;;;4.19;82.65;100085.91;24550;1333;3026685;-67
2022/12/26 10:09:39;;;;;;;6.20;3.00;;;;;;;4.02;82.34;100091.15;24495;1333;3052744;-68
2022/12/26 10:12:37;;;;;;;7.50;3.30;;;;;;;3.73;83.72;100093.92;24446;1341;3053031;-64
2022/12/26 10:15:19;;;;;;;5.30;2.90;;;;;;;3.42;84.51;100101.48;24458;1339;3051482;-70
2022/12/26 10:18:19;;;;;;;7.70;3.60;;;;;;;3.10;86.22;100099.05;24466;1334;3052321;-66
2022/12/26 10:21:06;;;;;;;6.00;3.20;;;;;;;3.02;86.60;100097.98;24558;1333;3048876;-70
2022/12/26 10:23:37;;;;;;;4.90;2.60;;;;;;;2.87;87.69;100099.84;24547;1334;3069019;-64
2022/12/26 10:26:23;;;;;;;3.20;2.10;;;;;;;2.84;87.74;100098.84;24508;1336;3025962;-70
2022/12/26 10:29:09;;;;;;;4.00;2.20;;;;;;;3.64;85.62;100092.72;24467;1339;3057328;-64
2022/12/26 10:31:40;;;;;;;3.90;2.50;;;;;;;4.10;83.45;100090.62;24564;1334;3053103;-70
2022/12/26 10:34:20;;;;;;;6.60;3.60;;;;;;;3.96;82.43;100092.88;24486;1333;3025456;-68
2022/12/26 10:36:59;;;;;;;6.30;2.90;;;;;;;3.52;83.69;100090.20;24523;1325;3052117;-70
2022/12/26 10:39:35;;;;;;;5.80;3.80;;;;;;;3.16;85.14;100095.12;24585;1334;3052807;-66
2022/12/26 10:42:18;;;;;;;6.00;3.20;;;;;;;3.02;85.97;100094.17;24465;1337;3049825;-69
2022/12/26 10:44:47;;;;;;;5.70;3.20;;;;;;;2.98;85.52;100097.90;24482;1333;3069448;-65
2022/12/26 10:47:26;;;;;;;5.40;3.40;;;;;;;2.67;87.01;100097.41;24516;1332;3028737;-70
2022/12/26 10:49:58;;;;;;;4.30;2.30;;;;;;;2.72;87.39;100098.72;24484;1333;3049930;-69
2022/12/26 10:52:33;;;;;;;6.70;3.20;;;;;;;3.42;86.16;100092.33;24439;1326;3026004;-70
2022/12/26 10:55:02;;;;;;;5.20;2.70;;;;;;;3.91;82.80;100097.82;24490;1337;3050380;-68
2022/12/26 10:57:34;;;;;;;4.80;3.30;;;;;;;3.80;82.60;100093.58;24477;1338;3026029;-69
2022/12/26 11:00:21;;;;;;;5.40;3.40;;;;;;;3.45;82.94;100096.60;24578;1331;3025891;-71
2022/12/26 11:03:17;;;;;;;5.90;3.90;;;;;;;3.42;83.76;100101.50;24693;1337;3052308;-65
2022/12/26 11:05:50;;;;;;;8.70;4.40;;;;;;;3.24;84.02;100098.07;24598;1334;3051576;-68
2022/12/26 11:08:35;;;;;;;10.00;5.60;;;;;;;3.22;83.78;100100.54;24525;1341;3028453;-69
2022/12/26 11:11:06;;;;;;;7.10;4.50;;;;;;;3.06;84.57;100101.02;24485;1330;3048472;-71
2022/12/26 11:13:38;;;;;;;7.20;4.20;;;;;;;2.97;85.23;100105.18;24660;1335;3026381;-67
2022/12/26 11:16:07;;;;;;;3.80;2.50;;;;;;;2.88;85.94;100108.11;24594;1331;3026649;-65
2022/12/26 11:18:38;;;;;;;5.50;3.30;;;;;;;3.45;85.05;100113.20;24474;1334;3028428;-67
2022/12/26 11:21:17;;;;;;;8.20;3.70;;;;;;;4.13;82.31;100112.22;24506;1333;3068625;-66
2022/12/26 11:23:48;;;;;;;8.50;4.70;;;;;;;4.07;81.04;100112.71;24576;1329;3050241;-68
2022/12/26 11:26:28;;;;;;;7.20;4.20;;;;;;;3.70;81.91;100118.59;24578;1327;3026824;-67
2022/12/26 11:29:09;;;;;;;7.20;4.30;;;;;;;3.47;82.53;100120.63;24566;1324;3052999;-69
2022/12/26 11:31:40;;;;;;;7.60;4.80;;;;;;;3.06;84.09;100123.17;24593;1333;3053599;-64
2022/12/26 11:34:26;;;;;;;7.20;5.00;;;;;;;2.54;86.23;100119.45;24551;1333;3025847;-75
2022/12/26 11:36:55;;;;;;;9.40;5.10;;;;;;;2.45;87.54;100116.66;24550;1334;3051672;-70
2022/12/26 11:39:31;;;;;;;6.40;3.70;;;;;;;2.57;87.14;100123.90;24522;1339;3025826;-63
2022/12/26 11:42:05;;;;;;;12.70;4.80;;;;;;;3.07;86.69;100124.54;24603;1333;3052149;-72
2022/12/26 11:44:34;;;;;;;8.70;4.90;;;;;;;3.56;84.13;100118.02;24576;1339;3053104;-75
2022/12/26 11:47:11;;;;;;;8.70;4.80;;;;;;;3.25;84.24;100120.54;24577;1324;3026371;-73
2022/12/26 11:49:58;;;;;;;8.10;5.30;;;;;;;3.12;84.80;100122.88;24516;1331;3068827;-71
2022/12/26 11:52:38;;;;;;;11.00;6.50;;;;;;;2.84;85.55;100127.73;24494;1336;3049090;-72
2022/12/26 11:55:23;;;;;;;8.60;5.50;;;;;;;2.61;86.82;100128.84;24568;1332;3056402;-64
2022/12/26 11:58:08;;;;;;;9.90;5.70;;;;;;;2.52;87.81;100122.42;24590;1329;3052358;-68
2022/12/26 12:00:41;;;;;;;9.10;5.40;;;;;;;2.31;88.52;100127.61;24596;1326;3053465;-74
2022/12/26 12:03:26;;;;;;;6.70;3.40;;;;;;;2.26;89.27;100129.25;24576;1333;3051268;-68
2022/12/26 23:22:38;;;;;;;12.80;6.00;;;;;;;2.21;85.11;100032.52;24384;1336;3069358;-64
2022/12/26 23:25:10;;;;;;;12.40;5.60;;;;;;;2.15;85.73;100034.34;24483;1330;3026357;-65
2022/12/26 23:30:30;;;;;;;9.00;4.30;;;;;;;3.06;83.91;100039.57;24397;1340;3069172;-63
2022/12/26 23:32:59;;;;;;;10.60;5.50;;;;;;;3.65;80.49;100031.54;23766;1330;4457501;-63
2022/12/26 23:35:28;;;;;;;11.00;4.80;;;;;;;3.42;79.97;100021.48;24468;1336;3050772;-63
2022/12/26 23:37:57;;;;;;;11.80;5.70;;;;;;;3.32;80.48;100028.10;24439;1330;3028226;-64
2022/12/26 23:40:29;;;;;;;13.80;5.60;;;;;;;3.23;81.10;100030.75;24481;1337;3052589;-64
2022/12/26 23:42:58;;;;;;;9.80;4.90;;;;;;;3.06;81.40;100035.09;24416;1326;3028708;-66
2022/12/26 23:45:27;;;;;;;10.00;5.60;;;;;;;2.74;82.36;100039.85;24466;1328;3050683;-65
2022/12/26 23:47:56;;;;;;;10.90;4.70;;;;;;;2.67;82.56;100047.44;24429;1334;3030997;-63
2022/12/26 23:50:25;;;;;;;13.30;5.30;;;;;;;2.59;82.34;100041.35;24476;1326;3028458;-63
2022/12/26 23:52:54;;;;;;;11.60;5.30;;;;;;;2.37;83.64;100027.23;24440;1334;3050218;-63
2022/12/26 23:55:23;;;;;;;6.10;3.50;;;;;;;2.26;84.53;100018.95;24483;1329;3028936;-64
2022/12/26 23:57:54;;;;;;;8.80;3.50;;;;;;;2.63;83.90;100023.45;24462;1332;3053185;-64
